createdAt,value
2023-06-23T00:04:56.917Z,23.40
2023-06-23T00:14:58.582Z,23.40
2023-06-23T00:25:00.538Z,23.40
2023-06-23T00:35:02.288Z,23.20
2023-06-23T00:45:04.325Z,23.20
2023-06-23T00:55:07.752Z,23.10
2023-06-23T01:05:10.752Z,22.90
2023-06-23T01:15:18.973Z,22.80
2023-06-23T01:25:38.354Z,22.70
2023-06-23T01:35:45.369Z,22.50
2023-06-23T01:45:48.010Z,22.30
2023-06-23T01:55:51.118Z,22.20
2023-06-23T02:05:54.602Z,22.10
2023-06-23T02:15:57.868Z,21.90
2023-06-23T02:26:00.643Z,21.50
2023-06-23T02:36:04.860Z,21.30
2023-06-23T02:46:10.218Z,21.20
2023-06-23T02:56:20.048Z,21.10
2023-06-23T03:06:23.572Z,21.10
2023-06-23T03:16:46.877Z,21.10
2023-06-23T03:26:51.288Z,21.00
2023-06-23T03:36:57.256Z,21.10
2023-06-23T03:47:04.343Z,21.00
2023-06-23T03:57:09.922Z,21.00
2023-06-23T04:07:12.665Z,21.00
2023-06-23T04:17:16.815Z,21.00
2023-06-23T04:27:20.162Z,21.00
2023-06-23T04:37:21.779Z,20.90
2023-06-23T04:47:25.254Z,20.80
2023-06-23T04:57:31.318Z,20.70
2023-06-23T05:07:35.347Z,20.80
2023-06-23T05:17:40.278Z,20.70
2023-06-23T05:27:46.653Z,20.60
2023-06-23T05:37:50.197Z,20.60
2023-06-23T05:48:03.540Z,20.60
2023-06-23T05:58:10.878Z,20.50
2023-06-23T06:08:13.387Z,20.50
2023-06-23T06:18:17.779Z,20.30
2023-06-23T06:28:20.929Z,20.30
2023-06-23T06:38:24.800Z,20.30
2023-06-23T06:48:28.160Z,20.30
2023-06-23T06:58:30.000Z,20.30
2023-06-23T07:08:31.704Z,20.30
2023-06-23T07:18:33.802Z,20.30
2023-06-23T07:28:35.525Z,20.20
2023-06-23T07:38:37.196Z,20.20
2023-06-23T07:48:38.926Z,20.10
2023-06-23T07:58:42.373Z,20.10
2023-06-23T08:08:48.124Z,20.10
2023-06-23T08:18:49.840Z,20.00
2023-06-23T08:28:51.593Z,20.00
2023-06-23T08:38:53.423Z,20.00
2023-06-23T08:48:57.978Z,20.00
2023-06-23T08:59:00.022Z,20.00
2023-06-23T09:09:01.839Z,20.20
2023-06-23T09:19:05.592Z,20.30
2023-06-23T09:29:19.659Z,20.20
2023-06-23T09:39:21.937Z,20.10
2023-06-23T09:49:24.342Z,20.20
2023-06-23T09:59:26.066Z,20.10
2023-06-23T10:09:27.816Z,20.20
2023-06-23T10:19:29.633Z,20.20
2023-06-23T10:59:43.520Z,20.30
2023-06-23T11:09:46.730Z,20.10
2023-06-23T11:19:55.388Z,20.10
2023-06-23T11:30:17.818Z,20.20
2023-06-23T11:40:20.699Z,20.50
2023-06-23T11:50:22.409Z,20.50
2023-06-23T12:00:24.258Z,20.70
2023-06-23T12:10:26.526Z,20.80
2023-06-23T12:20:28.348Z,20.70
2023-06-23T12:30:42.864Z,20.90
2023-06-23T12:40:46.182Z,21.00
2023-06-23T12:50:47.885Z,21.20
2023-06-23T13:00:49.681Z,21.40
2023-06-23T13:10:51.419Z,22.20
2023-06-23T13:20:53.190Z,21.80
2023-06-23T13:30:55.075Z,21.70
2023-06-23T13:40:57.900Z,21.60
2023-06-23T13:51:00.152Z,21.80
2023-06-23T14:01:01.938Z,21.90
2023-06-23T14:11:03.765Z,21.40
2023-06-23T14:21:05.788Z,21.20
2023-06-23T14:31:08.454Z,21.20
2023-06-23T14:41:10.337Z,21.00
2023-06-23T14:51:14.287Z,20.90
2023-06-23T15:01:16.024Z,22.70
2023-06-23T15:11:17.796Z,21.50
2023-06-23T15:21:19.623Z,22.00
2023-06-23T15:31:21.408Z,21.90
2023-06-23T15:41:23.124Z,21.60
2023-06-23T15:51:24.848Z,21.50
2023-06-23T16:01:26.979Z,21.60
2023-06-23T16:11:29.017Z,21.60
2023-06-23T16:21:31.231Z,21.70
2023-06-23T16:31:34.020Z,21.80
2023-06-23T16:41:36.239Z,21.90
2023-06-23T16:51:41.707Z,22.10
2023-06-23T17:01:43.951Z,22.20
2023-06-23T17:11:45.678Z,22.40
2023-06-23T17:21:47.815Z,22.50
2023-06-23T17:41:52.010Z,22.50
2023-06-23T17:51:53.706Z,32.10
2023-06-23T18:01:55.550Z,28.20
2023-06-23T18:11:57.299Z,25.70
2023-06-23T18:21:58.976Z,24.50
2023-06-23T18:32:13.608Z,23.60
2023-06-23T18:42:15.357Z,23.00
2023-06-23T18:52:17.038Z,22.60
2023-06-23T19:02:18.709Z,22.40
2023-06-23T19:12:20.469Z,22.30
2023-06-23T19:22:23.117Z,22.10
2023-06-23T19:32:25.060Z,22.00
2023-06-23T19:42:27.389Z,21.80
2023-06-23T19:52:29.724Z,21.70
2023-06-23T20:02:31.552Z,21.70
2023-06-23T20:12:33.373Z,21.60
2023-06-23T20:22:35.059Z,21.50
2023-06-23T20:32:36.756Z,21.40
2023-06-23T23:33:25.341Z,21.30
2023-06-23T23:43:27.036Z,19.10
2023-06-23T23:53:28.737Z,18.90
